sensor_id;sensor_type;location;lat;lon;timestamp;temperature;humidity
42755;DHT22;28407;51.830;5.684;2023-02-01T00:01:58;6.40;86.60
42755;DHT22;28407;51.830;5.684;2023-02-01T00:04:00;6.40;86.50
42755;DHT22;28407;51.830;5.684;2023-02-01T00:06:01;6.40;86.60
42755;DHT22;28407;51.830;5.684;2023-02-01T00:08:01;6.40;86.50
42755;DHT22;28407;51.830;5.684;2023-02-01T00:10:06;6.40;86.50
42755;DHT22;28407;51.830;5.684;2023-02-01T00:12:07;6.40;86.50
42755;DHT22;28407;51.830;5.684;2023-02-01T00:14:07;6.40;86.40
42755;DHT22;28407;51.830;5.684;2023-02-01T00:16:13;6.40;86.40
42755;DHT22;28407;51.830;5.684;2023-02-01T00:18:16;6.40;86.40
42755;DHT22;28407;51.830;5.684;2023-02-01T00:20:17;6.50;86.50
42755;DHT22;28407;51.830;5.684;2023-02-01T00:22:17;6.50;86.40
42755;DHT22;28407;51.830;5.684;2023-02-01T00:24:18;6.40;86.30
42755;DHT22;28407;51.830;5.684;2023-02-01T00:26:27;6.50;86.30
42755;DHT22;28407;51.830;5.684;2023-02-01T00:28:30;6.50;86.30
42755;DHT22;28407;51.830;5.684;2023-02-01T00:30:31;6.50;86.90
42755;DHT22;28407;51.830;5.684;2023-02-01T00:32:31;6.50;86.20
42755;DHT22;28407;51.830;5.684;2023-02-01T00:34:32;6.50;86.20
42755;DHT22;28407;51.830;5.684;2023-02-01T00:36:33;6.50;86.10
42755;DHT22;28407;51.830;5.684;2023-02-01T00:38:36;6.50;86.10
42755;DHT22;28407;51.830;5.684;2023-02-01T00:40:37;6.50;86.10
42755;DHT22;28407;51.830;5.684;2023-02-01T00:42:38;6.50;86.10
42755;DHT22;28407;51.830;5.684;2023-02-01T00:44:40;6.50;86.20
42755;DHT22;28407;51.830;5.684;2023-02-01T00:46:41;6.50;86.20
42755;DHT22;28407;51.830;5.684;2023-02-01T00:48:42;6.50;86.20
42755;DHT22;28407;51.830;5.684;2023-02-01T00:50:43;6.50;86.10
42755;DHT22;28407;51.830;5.684;2023-02-01T00:52:43;6.50;86.10
42755;DHT22;28407;51.830;5.684;2023-02-01T00:54:44;6.50;86.10
42755;DHT22;28407;51.830;5.684;2023-02-01T00:56:45;6.50;86.10
42755;DHT22;28407;51.830;5.684;2023-02-01T00:58:45;6.50;86.10
42755;DHT22;28407;51.830;5.684;2023-02-01T01:00:46;6.50;86.10
42755;DHT22;28407;51.830;5.684;2023-02-01T01:02:47;6.50;86.10
42755;DHT22;28407;51.830;5.684;2023-02-01T01:04:48;6.50;86.10
42755;DHT22;28407;51.830;5.684;2023-02-01T01:06:49;6.50;86.10
42755;DHT22;28407;51.830;5.684;2023-02-01T01:08:53;6.50;86.10
42755;DHT22;28407;51.830;5.684;2023-02-01T01:10:55;6.50;86.00
42755;DHT22;28407;51.830;5.684;2023-02-01T01:12:55;6.50;86.00
42755;DHT22;28407;51.830;5.684;2023-02-01T01:14:56;6.50;85.90
42755;DHT22;28407;51.830;5.684;2023-02-01T01:16:57;6.50;86.00
42755;DHT22;28407;51.830;5.684;2023-02-01T01:18:58;6.40;85.90
42755;DHT22;28407;51.830;5.684;2023-02-01T01:20:59;6.50;86.00
42755;DHT22;28407;51.830;5.684;2023-02-01T01:23:00;6.40;86.00
42755;DHT22;28407;51.830;5.684;2023-02-01T01:25:01;6.40;85.90
42755;DHT22;28407;51.830;5.684;2023-02-01T01:27:01;6.40;85.90
42755;DHT22;28407;51.830;5.684;2023-02-01T01:29:02;6.40;85.90
42755;DHT22;28407;51.830;5.684;2023-02-01T01:31:03;6.40;85.90
42755;DHT22;28407;51.830;5.684;2023-02-01T01:33:03;6.40;86.00
42755;DHT22;28407;51.830;5.684;2023-02-01T01:35:05;6.40;86.00
42755;DHT22;28407;51.830;5.684;2023-02-01T01:37:06;6.40;86.00
42755;DHT22;28407;51.830;5.684;2023-02-01T01:39:06;6.40;86.00
42755;DHT22;28407;51.830;5.684;2023-02-01T01:41:11;6.40;86.00
42755;DHT22;28407;51.830;5.684;2023-02-01T01:43:14;6.40;86.00
42755;DHT22;28407;51.830;5.684;2023-02-01T01:47:26;6.40;86.00
42755;DHT22;28407;51.830;5.684;2023-02-01T01:49:30;6.40;86.00
42755;DHT22;28407;51.830;5.684;2023-02-01T01:51:31;6.40;86.00
42755;DHT22;28407;51.830;5.684;2023-02-01T01:53:45;6.40;86.00
42755;DHT22;28407;51.830;5.684;2023-02-01T01:55:49;6.40;86.00
42755;DHT22;28407;51.830;5.684;2023-02-01T01:57:52;6.30;85.90
42755;DHT22;28407;51.830;5.684;2023-02-01T02:00:04;6.30;85.90
42755;DHT22;28407;51.830;5.684;2023-02-01T02:02:13;6.30;85.90
42755;DHT22;28407;51.830;5.684;2023-02-01T02:04:14;6.30;85.90
42755;DHT22;28407;51.830;5.684;2023-02-01T02:06:24;6.30;85.90
42755;DHT22;28407;51.830;5.684;2023-02-01T02:08:28;6.30;85.90
42755;DHT22;28407;51.830;5.684;2023-02-01T02:10:29;6.30;85.90
42755;DHT22;28407;51.830;5.684;2023-02-01T02:12:49;6.30;85.90
42755;DHT22;28407;51.830;5.684;2023-02-01T02:14:50;6.30;85.90
42755;DHT22;28407;51.830;5.684;2023-02-01T02:28:39;6.30;85.90
42755;DHT22;28407;51.830;5.684;2023-02-01T02:38:25;6.20;85.80
42755;DHT22;28407;51.830;5.684;2023-02-01T02:40:04;6.20;86.50
42755;DHT22;28407;51.830;5.684;2023-02-01T02:42:29;6.20;85.90
42755;DHT22;28407;51.830;5.684;2023-02-01T02:47:42;6.20;85.90
42755;DHT22;28407;51.830;5.684;2023-02-01T02:49:55;6.20;85.80
42755;DHT22;28407;51.830;5.684;2023-02-01T02:52:19;6.20;85.80
42755;DHT22;28407;51.830;5.684;2023-02-01T02:54:45;6.20;85.80
42755;DHT22;28407;51.830;5.684;2023-02-01T02:56:49;6.20;85.80
42755;DHT22;28407;51.830;5.684;2023-02-01T02:59:12;6.20;85.70
42755;DHT22;28407;51.830;5.684;2023-02-01T03:01:33;6.20;85.70
42755;DHT22;28407;51.830;5.684;2023-02-01T03:03:52;6.20;85.70
42755;DHT22;28407;51.830;5.684;2023-02-01T03:06:16;6.20;85.60
42755;DHT22;28407;51.830;5.684;2023-02-01T03:08:21;6.30;85.70
42755;DHT22;28407;51.830;5.684;2023-02-01T03:12:54;6.30;85.70
42755;DHT22;28407;51.830;5.684;2023-02-01T03:15:08;6.30;85.70
42755;DHT22;28407;51.830;5.684;2023-02-01T03:17:14;6.30;85.70
42755;DHT22;28407;51.830;5.684;2023-02-01T03:19:25;6.30;85.70
42755;DHT22;28407;51.830;5.684;2023-02-01T03:21:38;6.30;85.70
42755;DHT22;28407;51.830;5.684;2023-02-01T03:23:40;6.40;85.70
42755;DHT22;28407;51.830;5.684;2023-02-01T03:25:44;6.40;85.70
42755;DHT22;28407;51.830;5.684;2023-02-01T03:28:07;6.40;85.70
42755;DHT22;28407;51.830;5.684;2023-02-01T03:30:22;6.40;85.70
42755;DHT22;28407;51.830;5.684;2023-02-01T03:32:24;6.40;85.60
42755;DHT22;28407;51.830;5.684;2023-02-01T03:34:25;6.40;85.60
42755;DHT22;28407;51.830;5.684;2023-02-01T03:36:48;6.40;85.70
42755;DHT22;28407;51.830;5.684;2023-02-01T03:39:08;6.40;85.70
42755;DHT22;28407;51.830;5.684;2023-02-01T03:41:18;6.40;85.70
42755;DHT22;28407;51.830;5.684;2023-02-01T03:43:21;6.40;85.70
42755;DHT22;28407;51.830;5.684;2023-02-01T03:45:36;6.40;85.70
42755;DHT22;28407;51.830;5.684;2023-02-01T03:47:42;6.40;85.70
42755;DHT22;28407;51.830;5.684;2023-02-01T03:49:46;6.40;85.70
42755;DHT22;28407;51.830;5.684;2023-02-01T03:51:50;6.40;85.80
42755;DHT22;28407;51.830;5.684;2023-02-01T03:53:53;6.40;85.80
42755;DHT22;28407;51.830;5.684;2023-02-01T03:55:56;6.40;85.80
42755;DHT22;28407;51.830;5.684;2023-02-01T03:58:07;6.40;85.80
42755;DHT22;28407;51.830;5.684;2023-02-01T04:00:18;6.40;85.90
42755;DHT22;28407;51.830;5.684;2023-02-01T04:02:19;6.40;85.90
42755;DHT22;28407;51.830;5.684;2023-02-01T04:04:20;6.40;85.90
42755;DHT22;28407;51.830;5.684;2023-02-01T04:06:24;6.40;85.90
42755;DHT22;28407;51.830;5.684;2023-02-01T04:08:25;6.40;85.90
42755;DHT22;28407;51.830;5.684;2023-02-01T04:10:26;6.40;86.00
42755;DHT22;28407;51.830;5.684;2023-02-01T04:12:26;6.40;86.00
42755;DHT22;28407;51.830;5.684;2023-02-01T04:14:27;6.40;86.10
42755;DHT22;28407;51.830;5.684;2023-02-01T04:16:28;6.40;86.10
42755;DHT22;28407;51.830;5.684;2023-02-01T04:18:28;6.40;86.10
42755;DHT22;28407;51.830;5.684;2023-02-01T04:20:29;6.40;86.10
42755;DHT22;28407;51.830;5.684;2023-02-01T04:22:30;6.30;86.10
42755;DHT22;28407;51.830;5.684;2023-02-01T04:24:30;6.30;86.10
42755;DHT22;28407;51.830;5.684;2023-02-01T04:26:31;6.30;86.20
42755;DHT22;28407;51.830;5.684;2023-02-01T04:28:31;6.30;86.20
42755;DHT22;28407;51.830;5.684;2023-02-01T04:30:32;6.30;86.20
42755;DHT22;28407;51.830;5.684;2023-02-01T04:32:33;6.30;86.30
42755;DHT22;28407;51.830;5.684;2023-02-01T04:34:33;6.30;86.30
42755;DHT22;28407;51.830;5.684;2023-02-01T04:36:34;6.30;86.30
42755;DHT22;28407;51.830;5.684;2023-02-01T04:38:35;6.30;86.30
42755;DHT22;28407;51.830;5.684;2023-02-01T04:40:35;6.30;86.30
42755;DHT22;28407;51.830;5.684;2023-02-01T04:42:38;6.30;86.30
42755;DHT22;28407;51.830;5.684;2023-02-01T04:44:38;6.30;86.30
42755;DHT22;28407;51.830;5.684;2023-02-01T04:46:42;6.30;86.30
42755;DHT22;28407;51.830;5.684;2023-02-01T04:48:43;6.30;86.30
42755;DHT22;28407;51.830;5.684;2023-02-01T04:50:44;6.40;86.30
42755;DHT22;28407;51.830;5.684;2023-02-01T04:52:47;6.30;86.30
42755;DHT22;28407;51.830;5.684;2023-02-01T04:54:48;6.40;86.30
42755;DHT22;28407;51.830;5.684;2023-02-01T04:56:48;6.40;86.30
42755;DHT22;28407;51.830;5.684;2023-02-01T04:58:49;6.40;86.30
42755;DHT22;28407;51.830;5.684;2023-02-01T05:00:50;6.40;86.30
42755;DHT22;28407;51.830;5.684;2023-02-01T05:02:51;6.40;86.20
42755;DHT22;28407;51.830;5.684;2023-02-01T05:04:52;6.40;86.20
42755;DHT22;28407;51.830;5.684;2023-02-01T05:06:52;6.40;86.20
42755;DHT22;28407;51.830;5.684;2023-02-01T05:08:53;6.40;86.20
42755;DHT22;28407;51.830;5.684;2023-02-01T05:10:54;6.50;86.20
42755;DHT22;28407;51.830;5.684;2023-02-01T05:12:54;6.50;86.20
42755;DHT22;28407;51.830;5.684;2023-02-01T05:15:14;6.50;86.20
42755;DHT22;28407;51.830;5.684;2023-02-01T05:17:14;6.50;86.80
42755;DHT22;28407;51.830;5.684;2023-02-01T05:19:15;6.50;86.10
42755;DHT22;28407;51.830;5.684;2023-02-01T05:21:15;6.60;86.20
42755;DHT22;28407;51.830;5.684;2023-02-01T05:23:16;6.60;86.20
42755;DHT22;28407;51.830;5.684;2023-02-01T05:25:17;6.60;86.10
42755;DHT22;28407;51.830;5.684;2023-02-01T05:27:17;6.60;86.10
42755;DHT22;28407;51.830;5.684;2023-02-01T05:29:18;6.60;86.10
42755;DHT22;28407;51.830;5.684;2023-02-01T05:31:19;6.60;86.10
42755;DHT22;28407;51.830;5.684;2023-02-01T05:33:20;6.60;86.10
42755;DHT22;28407;51.830;5.684;2023-02-01T05:35:21;6.60;86.10
42755;DHT22;28407;51.830;5.684;2023-02-01T05:37:21;6.60;86.00
42755;DHT22;28407;51.830;5.684;2023-02-01T05:39:22;6.60;86.00
42755;DHT22;28407;51.830;5.684;2023-02-01T05:41:23;6.70;86.10
42755;DHT22;28407;51.830;5.684;2023-02-01T05:43:23;6.70;86.00
42755;DHT22;28407;51.830;5.684;2023-02-01T05:45:24;6.60;85.90
42755;DHT22;28407;51.830;5.684;2023-02-01T05:47:25;6.70;86.00
42755;DHT22;28407;51.830;5.684;2023-02-01T05:49:25;6.70;86.00
42755;DHT22;28407;51.830;5.684;2023-02-01T05:51:26;6.70;86.00
42755;DHT22;28407;51.830;5.684;2023-02-01T05:53:26;6.70;86.00
42755;DHT22;28407;51.830;5.684;2023-02-01T05:55:27;6.70;86.00
42755;DHT22;28407;51.830;5.684;2023-02-01T05:57:28;6.70;85.90
42755;DHT22;28407;51.830;5.684;2023-02-01T05:59:29;6.70;85.90
42755;DHT22;28407;51.830;5.684;2023-02-01T06:01:29;6.70;85.90
42755;DHT22;28407;51.830;5.684;2023-02-01T06:03:30;6.70;85.90
42755;DHT22;28407;51.830;5.684;2023-02-01T06:05:31;6.70;85.90
42755;DHT22;28407;51.830;5.684;2023-02-01T06:07:32;6.70;85.90
42755;DHT22;28407;51.830;5.684;2023-02-01T06:09:33;6.70;85.90
42755;DHT22;28407;51.830;5.684;2023-02-01T06:11:34;6.70;85.90
42755;DHT22;28407;51.830;5.684;2023-02-01T06:13:35;6.70;85.90
42755;DHT22;28407;51.830;5.684;2023-02-01T06:15:35;6.70;85.90
42755;DHT22;28407;51.830;5.684;2023-02-01T06:17:37;6.70;85.90
42755;DHT22;28407;51.830;5.684;2023-02-01T06:19:39;6.70;85.80
42755;DHT22;28407;51.830;5.684;2023-02-01T06:21:40;6.70;85.80
42755;DHT22;28407;51.830;5.684;2023-02-01T06:23:41;6.70;85.70
42755;DHT22;28407;51.830;5.684;2023-02-01T06:25:42;6.70;85.70
42755;DHT22;28407;51.830;5.684;2023-02-01T06:27:43;6.80;85.80
42755;DHT22;28407;51.830;5.684;2023-02-01T06:29:45;6.70;85.70
42755;DHT22;28407;51.830;5.684;2023-02-01T06:31:45;6.80;85.70
42755;DHT22;28407;51.830;5.684;2023-02-01T06:33:46;6.80;85.80
42755;DHT22;28407;51.830;5.684;2023-02-01T06:35:47;6.80;85.70
42755;DHT22;28407;51.830;5.684;2023-02-01T06:37:48;6.80;85.70
42755;DHT22;28407;51.830;5.684;2023-02-01T06:39:49;6.80;85.70
42755;DHT22;28407;51.830;5.684;2023-02-01T06:41:49;6.80;85.70
42755;DHT22;28407;51.830;5.684;2023-02-01T06:43:50;6.80;85.70
42755;DHT22;28407;51.830;5.684;2023-02-01T06:45:51;6.80;85.70
42755;DHT22;28407;51.830;5.684;2023-02-01T06:47:52;6.90;85.70
42755;DHT22;28407;51.830;5.684;2023-02-01T06:49:52;6.90;85.70
42755;DHT22;28407;51.830;5.684;2023-02-01T06:51:53;6.80;85.60
42755;DHT22;28407;51.830;5.684;2023-02-01T06:53:53;6.90;85.60
42755;DHT22;28407;51.830;5.684;2023-02-01T06:56:00;6.90;85.60
42755;DHT22;28407;51.830;5.684;2023-02-01T06:58:02;6.90;85.60
42755;DHT22;28407;51.830;5.684;2023-02-01T07:00:04;6.90;85.60
42755;DHT22;28407;51.830;5.684;2023-02-01T07:02:12;6.90;85.60
42755;DHT22;28407;51.830;5.684;2023-02-01T07:04:13;6.90;85.50
42755;DHT22;28407;51.830;5.684;2023-02-01T07:06:13;6.90;85.50
42755;DHT22;28407;51.830;5.684;2023-02-01T07:08:14;6.90;85.50
42755;DHT22;28407;51.830;5.684;2023-02-01T07:10:15;6.90;85.50
42755;DHT22;28407;51.830;5.684;2023-02-01T07:12:15;6.90;85.50
42755;DHT22;28407;51.830;5.684;2023-02-01T07:14:16;6.90;85.50
42755;DHT22;28407;51.830;5.684;2023-02-01T07:16:18;6.90;85.50
42755;DHT22;28407;51.830;5.684;2023-02-01T07:18:19;6.90;85.50
42755;DHT22;28407;51.830;5.684;2023-02-01T07:20:20;6.90;85.50
42755;DHT22;28407;51.830;5.684;2023-02-01T07:22:20;6.90;85.50
42755;DHT22;28407;51.830;5.684;2023-02-01T07:24:21;6.90;85.50
42755;DHT22;28407;51.830;5.684;2023-02-01T07:26:22;6.90;85.50
42755;DHT22;28407;51.830;5.684;2023-02-01T07:28:23;6.90;85.50
42755;DHT22;28407;51.830;5.684;2023-02-01T07:30:24;7.00;85.60
42755;DHT22;28407;51.830;5.684;2023-02-01T07:32:26;7.00;85.60
42755;DHT22;28407;51.830;5.684;2023-02-01T07:34:26;6.90;85.50
42755;DHT22;28407;51.830;5.684;2023-02-01T07:36:27;6.90;85.50
42755;DHT22;28407;51.830;5.684;2023-02-01T07:38:28;7.00;85.60
42755;DHT22;28407;51.830;5.684;2023-02-01T07:40:29;6.90;85.50
42755;DHT22;28407;51.830;5.684;2023-02-01T07:42:30;7.00;85.60
42755;DHT22;28407;51.830;5.684;2023-02-01T07:44:31;6.90;85.60
42755;DHT22;28407;51.830;5.684;2023-02-01T07:46:32;7.00;85.60
42755;DHT22;28407;51.830;5.684;2023-02-01T07:48:33;7.00;85.60
42755;DHT22;28407;51.830;5.684;2023-02-01T07:50:36;6.90;85.60
42755;DHT22;28407;51.830;5.684;2023-02-01T07:52:36;7.00;85.70
42755;DHT22;28407;51.830;5.684;2023-02-01T07:54:37;7.00;85.60
42755;DHT22;28407;51.830;5.684;2023-02-01T07:56:38;7.00;85.70
42755;DHT22;28407;51.830;5.684;2023-02-01T07:58:38;7.00;85.60
42755;DHT22;28407;51.830;5.684;2023-02-01T08:00:39;7.00;85.60
42755;DHT22;28407;51.830;5.684;2023-02-01T08:02:59;7.00;85.60
42755;DHT22;28407;51.830;5.684;2023-02-01T08:05:00;7.00;85.70
42755;DHT22;28407;51.830;5.684;2023-02-01T08:07:00;7.00;85.60
42755;DHT22;28407;51.830;5.684;2023-02-01T08:09:02;6.90;85.60
42755;DHT22;28407;51.830;5.684;2023-02-01T08:11:04;7.00;85.70
42755;DHT22;28407;51.830;5.684;2023-02-01T08:13:05;7.00;85.70
42755;DHT22;28407;51.830;5.684;2023-02-01T08:15:06;7.00;85.70
42755;DHT22;28407;51.830;5.684;2023-02-01T08:17:07;7.00;85.70
42755;DHT22;28407;51.830;5.684;2023-02-01T08:19:08;6.90;85.60
42755;DHT22;28407;51.830;5.684;2023-02-01T08:21:25;6.90;85.70
42755;DHT22;28407;51.830;5.684;2023-02-01T08:23:26;7.00;85.70
42755;DHT22;28407;51.830;5.684;2023-02-01T08:25:27;6.90;85.70
42755;DHT22;28407;51.830;5.684;2023-02-01T08:27:28;7.00;85.70
42755;DHT22;28407;51.830;5.684;2023-02-01T08:29:28;7.00;85.70
42755;DHT22;28407;51.830;5.684;2023-02-01T08:31:29;6.90;85.60
42755;DHT22;28407;51.830;5.684;2023-02-01T08:33:30;6.90;85.60
42755;DHT22;28407;51.830;5.684;2023-02-01T08:35:31;6.90;85.60
42755;DHT22;28407;51.830;5.684;2023-02-01T08:37:32;7.00;85.70
42755;DHT22;28407;51.830;5.684;2023-02-01T08:39:32;7.00;85.70
42755;DHT22;28407;51.830;5.684;2023-02-01T08:41:33;7.00;85.70
42755;DHT22;28407;51.830;5.684;2023-02-01T08:43:34;7.00;85.70
42755;DHT22;28407;51.830;5.684;2023-02-01T08:45:34;7.00;85.70
42755;DHT22;28407;51.830;5.684;2023-02-01T08:47:35;7.00;85.70
42755;DHT22;28407;51.830;5.684;2023-02-01T08:49:36;7.00;85.70
42755;DHT22;28407;51.830;5.684;2023-02-01T08:51:36;7.00;85.80
42755;DHT22;28407;51.830;5.684;2023-02-01T08:53:38;7.00;85.80
42755;DHT22;28407;51.830;5.684;2023-02-01T08:55:41;7.00;85.80
42755;DHT22;28407;51.830;5.684;2023-02-01T08:57:42;7.00;85.80
42755;DHT22;28407;51.830;5.684;2023-02-01T08:59:43;7.00;85.90
42755;DHT22;28407;51.830;5.684;2023-02-01T09:01:46;7.00;85.80
42755;DHT22;28407;51.830;5.684;2023-02-01T09:03:47;7.00;85.80
42755;DHT22;28407;51.830;5.684;2023-02-01T09:05:47;7.00;85.70
42755;DHT22;28407;51.830;5.684;2023-02-01T09:07:48;7.00;85.70
42755;DHT22;28407;51.830;5.684;2023-02-01T09:09:49;7.10;85.80
42755;DHT22;28407;51.830;5.684;2023-02-01T09:11:49;7.10;85.70
42755;DHT22;28407;51.830;5.684;2023-02-01T09:13:53;7.10;85.70
42755;DHT22;28407;51.830;5.684;2023-02-01T09:15:53;7.10;85.70
42755;DHT22;28407;51.830;5.684;2023-02-01T09:17:54;7.10;85.70
42755;DHT22;28407;51.830;5.684;2023-02-01T09:19:55;7.20;85.70
42755;DHT22;28407;51.830;5.684;2023-02-01T09:21:55;7.20;85.70
42755;DHT22;28407;51.830;5.684;2023-02-01T09:23:56;7.20;85.60
42755;DHT22;28407;51.830;5.684;2023-02-01T09:26:00;7.20;85.50
42755;DHT22;28407;51.830;5.684;2023-02-01T09:28:01;7.30;86.20
42755;DHT22;28407;51.830;5.684;2023-02-01T09:30:04;7.30;85.60
42755;DHT22;28407;51.830;5.684;2023-02-01T09:32:06;7.30;85.50
42755;DHT22;28407;51.830;5.684;2023-02-01T09:34:06;7.30;85.50
42755;DHT22;28407;51.830;5.684;2023-02-01T09:36:07;7.30;85.40
42755;DHT22;28407;51.830;5.684;2023-02-01T09:38:08;7.40;85.40
42755;DHT22;28407;51.830;5.684;2023-02-01T09:40:14;7.40;85.40
42755;DHT22;28407;51.830;5.684;2023-02-01T09:46:58;7.50;85.40
42755;DHT22;28407;51.830;5.684;2023-02-01T09:49:11;7.50;85.30
42755;DHT22;28407;51.830;5.684;2023-02-01T09:51:31;7.50;85.20
42755;DHT22;28407;51.830;5.684;2023-02-01T09:53:40;7.60;85.20
42755;DHT22;28407;51.830;5.684;2023-02-01T09:55:50;7.60;85.20
42755;DHT22;28407;51.830;5.684;2023-02-01T10:00:04;7.70;85.00
42755;DHT22;28407;51.830;5.684;2023-02-01T10:02:22;7.70;84.90
42755;DHT22;28407;51.830;5.684;2023-02-01T10:04:23;7.80;84.80
42755;DHT22;28407;51.830;5.684;2023-02-01T10:09:23;7.80;84.70
42755;DHT22;28407;51.830;5.684;2023-02-01T10:14:59;7.90;84.50
42755;DHT22;28407;51.830;5.684;2023-02-01T10:19:04;7.90;84.50
42755;DHT22;28407;51.830;5.684;2023-02-01T10:21:26;7.90;84.50
42755;DHT22;28407;51.830;5.684;2023-02-01T10:26:18;7.90;84.40
42755;DHT22;28407;51.830;5.684;2023-02-01T10:28:20;7.90;84.40
42755;DHT22;28407;51.830;5.684;2023-02-01T10:30:24;7.90;84.30
42755;DHT22;28407;51.830;5.684;2023-02-01T10:32:30;7.90;84.30
42755;DHT22;28407;51.830;5.684;2023-02-01T10:34:33;7.90;84.30
42755;DHT22;28407;51.830;5.684;2023-02-01T10:36:41;8.00;84.30
42755;DHT22;28407;51.830;5.684;2023-02-01T10:38:43;7.90;84.30
42755;DHT22;28407;51.830;5.684;2023-02-01T10:40:44;8.00;84.40
42755;DHT22;28407;51.830;5.684;2023-02-01T10:42:45;8.00;84.30
42755;DHT22;28407;51.830;5.684;2023-02-01T10:44:47;8.00;84.30
42755;DHT22;28407;51.830;5.684;2023-02-01T10:46:49;8.00;84.30
42755;DHT22;28407;51.830;5.684;2023-02-01T10:48:52;8.00;84.30
42755;DHT22;28407;51.830;5.684;2023-02-01T10:51:06;8.00;84.30
42755;DHT22;28407;51.830;5.684;2023-02-01T10:57:26;7.90;84.40
42755;DHT22;28407;51.830;5.684;2023-02-01T10:59:30;8.00;84.50
42755;DHT22;28407;51.830;5.684;2023-02-01T11:01:37;7.90;84.50
42755;DHT22;28407;51.830;5.684;2023-02-01T11:03:45;7.90;84.60
42755;DHT22;28407;51.830;5.684;2023-02-01T11:05:52;7.90;84.70
42755;DHT22;28407;51.830;5.684;2023-02-01T11:07:54;7.90;84.80
42755;DHT22;28407;51.830;5.684;2023-02-01T11:09:56;7.90;84.90
42755;DHT22;28407;51.830;5.684;2023-02-01T11:11:59;7.90;84.90
42755;DHT22;28407;51.830;5.684;2023-02-01T11:14:04;7.90;85.00
42755;DHT22;28407;51.830;5.684;2023-02-01T11:16:13;7.80;84.90
42755;DHT22;28407;51.830;5.684;2023-02-01T11:18:19;7.90;85.00
42755;DHT22;28407;51.830;5.684;2023-02-01T11:20:21;7.80;85.00
42755;DHT22;28407;51.830;5.684;2023-02-01T11:22:27;7.90;85.00
42755;DHT22;28407;51.830;5.684;2023-02-01T11:24:32;7.90;85.00
42755;DHT22;28407;51.830;5.684;2023-02-01T11:26:33;7.90;84.90
42755;DHT22;28407;51.830;5.684;2023-02-01T11:28:44;7.90;84.90
42755;DHT22;28407;51.830;5.684;2023-02-01T11:30:47;7.90;84.90
42755;DHT22;28407;51.830;5.684;2023-02-01T11:32:50;7.90;84.90
42755;DHT22;28407;51.830;5.684;2023-02-01T11:35:05;7.90;84.90
42755;DHT22;28407;51.830;5.684;2023-02-01T11:37:36;7.90;84.90
42755;DHT22;28407;51.830;5.684;2023-02-01T11:39:35;7.90;84.90
42755;DHT22;28407;51.830;5.684;2023-02-01T11:41:54;7.90;84.90
42755;DHT22;28407;51.830;5.684;2023-02-01T11:43:59;7.90;84.90
42755;DHT22;28407;51.830;5.684;2023-02-01T11:46:15;7.90;84.80
42755;DHT22;28407;51.830;5.684;2023-02-01T11:48:17;7.90;84.90
42755;DHT22;28407;51.830;5.684;2023-02-01T11:50:30;7.90;84.90
42755;DHT22;28407;51.830;5.684;2023-02-01T11:55:14;7.90;85.00
42755;DHT22;28407;51.830;5.684;2023-02-01T11:57:55;7.90;85.10
42755;DHT22;28407;51.830;5.684;2023-02-01T12:02:51;7.90;85.50
42755;DHT22;28407;51.830;5.684;2023-02-01T12:05:00;7.80;85.60
42755;DHT22;28407;51.830;5.684;2023-02-01T12:12:00;7.80;85.90
42755;DHT22;28407;51.830;5.684;2023-02-01T12:14:35;7.80;85.90
42755;DHT22;28407;51.830;5.684;2023-02-01T12:18:44;7.80;85.90
42755;DHT22;28407;51.830;5.684;2023-02-01T12:28:58;7.80;86.00
42755;DHT22;28407;51.830;5.684;2023-02-01T12:37:58;7.90;85.80
42755;DHT22;28407;51.830;5.684;2023-02-01T12:40:12;7.90;85.80
42755;DHT22;28407;51.830;5.684;2023-02-01T12:42:26;7.90;85.70
42755;DHT22;28407;51.830;5.684;2023-02-01T12:44:52;7.90;85.80
42755;DHT22;28407;51.830;5.684;2023-02-01T12:47:12;7.90;85.70
42755;DHT22;28407;51.830;5.684;2023-02-01T12:49:33;8.00;85.70
42755;DHT22;28407;51.830;5.684;2023-02-01T12:51:40;8.00;85.70
42755;DHT22;28407;51.830;5.684;2023-02-01T12:55:49;8.00;85.60
42755;DHT22;28407;51.830;5.684;2023-02-01T12:58:01;8.00;85.60
42755;DHT22;28407;51.830;5.684;2023-02-01T13:00:32;8.00;85.60
42755;DHT22;28407;51.830;5.684;2023-02-01T13:02:40;8.10;85.60
42755;DHT22;28407;51.830;5.684;2023-02-01T13:04:53;8.10;85.40
42755;DHT22;28407;51.830;5.684;2023-02-01T13:09:15;8.10;85.30
42755;DHT22;28407;51.830;5.684;2023-02-01T13:11:31;8.10;85.30
42755;DHT22;28407;51.830;5.684;2023-02-01T13:16:47;8.10;85.30
42755;DHT22;28407;51.830;5.684;2023-02-01T13:18:50;8.20;85.30
42755;DHT22;28407;51.830;5.684;2023-02-01T13:23:07;8.20;85.20
42755;DHT22;28407;51.830;5.684;2023-02-01T13:25:19;8.20;85.20
42755;DHT22;28407;51.830;5.684;2023-02-01T13:27:27;8.20;85.10
42755;DHT22;28407;51.830;5.684;2023-02-01T13:29:31;8.20;85.10
42755;DHT22;28407;51.830;5.684;2023-02-01T13:32:02;8.30;85.10
42755;DHT22;28407;51.830;5.684;2023-02-01T13:36:39;8.30;85.00
42755;DHT22;28407;51.830;5.684;2023-02-01T13:41:02;8.30;84.90
42755;DHT22;28407;51.830;5.684;2023-02-01T13:43:12;8.40;85.00
42755;DHT22;28407;51.830;5.684;2023-02-01T13:45:19;8.40;85.00
42755;DHT22;28407;51.830;5.684;2023-02-01T13:47:29;8.40;84.90
42755;DHT22;28407;51.830;5.684;2023-02-01T13:49:38;8.40;84.80
42755;DHT22;28407;51.830;5.684;2023-02-01T13:51:47;8.40;84.70
42755;DHT22;28407;51.830;5.684;2023-02-01T13:53:49;8.40;84.70
42755;DHT22;28407;51.830;5.684;2023-02-01T13:55:59;8.40;84.60
42755;DHT22;28407;51.830;5.684;2023-02-01T14:00:51;8.40;84.50
42755;DHT22;28407;51.830;5.684;2023-02-01T14:04:50;8.50;84.50
42755;DHT22;28407;51.830;5.684;2023-02-01T14:06:53;8.50;84.40
42755;DHT22;28407;51.830;5.684;2023-02-01T14:09:14;8.50;84.30
42755;DHT22;28407;51.830;5.684;2023-02-01T14:11:35;8.60;84.40
42755;DHT22;28407;51.830;5.684;2023-02-01T14:13:40;8.50;84.20
42755;DHT22;28407;51.830;5.684;2023-02-01T14:20:44;8.60;84.30
42755;DHT22;28407;51.830;5.684;2023-02-01T14:22:49;8.50;84.20
42755;DHT22;28407;51.830;5.684;2023-02-01T14:24:51;8.60;84.30
42755;DHT22;28407;51.830;5.684;2023-02-01T14:26:56;8.50;84.10
42755;DHT22;28407;51.830;5.684;2023-02-01T14:28:59;8.60;84.10
42755;DHT22;28407;51.830;5.684;2023-02-01T14:31:00;8.60;84.10
42755;DHT22;28407;51.830;5.684;2023-02-01T14:33:23;8.60;84.00
42755;DHT22;28407;51.830;5.684;2023-02-01T14:35:26;8.60;83.90
42755;DHT22;28407;51.830;5.684;2023-02-01T14:37:33;8.60;83.90
42755;DHT22;28407;51.830;5.684;2023-02-01T14:39:59;8.60;84.00
42755;DHT22;28407;51.830;5.684;2023-02-01T14:44:35;8.60;83.90
42755;DHT22;28407;51.830;5.684;2023-02-01T14:47:08;8.60;83.80
42755;DHT22;28407;51.830;5.684;2023-02-01T14:49:10;8.60;83.70
42755;DHT22;28407;51.830;5.684;2023-02-01T14:51:14;8.60;83.80
42755;DHT22;28407;51.830;5.684;2023-02-01T14:53:29;8.60;83.70
42755;DHT22;28407;51.830;5.684;2023-02-01T14:58:02;8.60;83.70
42755;DHT22;28407;51.830;5.684;2023-02-01T15:00:26;8.60;83.70
42755;DHT22;28407;51.830;5.684;2023-02-01T15:02:28;8.60;83.70
42755;DHT22;28407;51.830;5.684;2023-02-01T15:04:41;8.60;83.70
42755;DHT22;28407;51.830;5.684;2023-02-01T15:08:47;8.60;83.60